sensor_id;sensor_type;location;lat;lon;timestamp;temperature;humidity
14733;DHT22;7457;50.960;6.830;2022-10-28T00:02:20;17.40;99.90
14733;DHT22;7457;50.960;6.830;2022-10-28T00:04:45;17.40;99.90
14733;DHT22;7457;50.960;6.830;2022-10-28T00:07:11;17.40;99.90
14733;DHT22;7457;50.960;6.830;2022-10-28T00:09:37;17.50;99.90
14733;DHT22;7457;50.960;6.830;2022-10-28T00:12:02;17.40;99.90
14733;DHT22;7457;50.960;6.830;2022-10-28T00:14:28;17.50;99.90
14733;DHT22;7457;50.960;6.830;2022-10-28T00:16:53;17.40;99.90
14733;DHT22;7457;50.960;6.830;2022-10-28T00:19:19;17.50;99.90
14733;DHT22;7457;50.960;6.830;2022-10-28T00:21:44;17.40;99.90
14733;DHT22;7457;50.960;6.830;2022-10-28T00:24:12;17.50;99.90
14733;DHT22;7457;50.960;6.830;2022-10-28T00:26:40;17.50;99.90
14733;DHT22;7457;50.960;6.830;2022-10-28T00:29:11;17.40;99.90
14733;DHT22;7457;50.960;6.830;2022-10-28T00:31:37;17.50;99.90
14733;DHT22;7457;50.960;6.830;2022-10-28T00:34:04;17.50;99.90
14733;DHT22;7457;50.960;6.830;2022-10-28T00:36:36;17.50;99.90
14733;DHT22;7457;50.960;6.830;2022-10-28T00:39:06;17.50;99.90
14733;DHT22;7457;50.960;6.830;2022-10-28T00:41:35;17.60;99.90
14733;DHT22;7457;50.960;6.830;2022-10-28T00:46:48;17.60;99.90
14733;DHT22;7457;50.960;6.830;2022-10-28T00:49:22;17.60;99.90
14733;DHT22;7457;50.960;6.830;2022-10-28T00:51:55;17.60;99.90
14733;DHT22;7457;50.960;6.830;2022-10-28T00:54:23;17.60;99.90
14733;DHT22;7457;50.960;6.830;2022-10-28T00:56:51;17.60;99.90
14733;DHT22;7457;50.960;6.830;2022-10-28T00:59:35;17.60;99.90
14733;DHT22;7457;50.960;6.830;2022-10-28T01:02:01;17.60;99.90
14733;DHT22;7457;50.960;6.830;2022-10-28T01:04:27;17.60;99.90
14733;DHT22;7457;50.960;6.830;2022-10-28T01:06:53;17.50;99.90
14733;DHT22;7457;50.960;6.830;2022-10-28T01:09:20;17.50;99.90
14733;DHT22;7457;50.960;6.830;2022-10-28T01:22:26;17.60;99.90
14733;DHT22;7457;50.960;6.830;2022-10-28T01:28:06;17.60;99.90
14733;DHT22;7457;50.960;6.830;2022-10-28T01:33:31;17.60;99.90
14733;DHT22;7457;50.960;6.830;2022-10-28T01:36:18;17.70;99.90
14733;DHT22;7457;50.960;6.830;2022-10-28T01:38:56;17.60;99.90
14733;DHT22;7457;50.960;6.830;2022-10-28T01:41:45;17.70;99.90
14733;DHT22;7457;50.960;6.830;2022-10-28T01:45:01;17.70;99.90
14733;DHT22;7457;50.960;6.830;2022-10-28T01:47:29;17.70;99.90
14733;DHT22;7457;50.960;6.830;2022-10-28T01:50:00;17.70;99.90
14733;DHT22;7457;50.960;6.830;2022-10-28T01:52:28;17.70;99.90
14733;DHT22;7457;50.960;6.830;2022-10-28T01:55:01;17.70;99.90
14733;DHT22;7457;50.960;6.830;2022-10-28T01:57:29;17.70;99.90
14733;DHT22;7457;50.960;6.830;2022-10-28T01:59:56;17.60;99.90
14733;DHT22;7457;50.960;6.830;2022-10-28T02:02:23;17.60;99.90
14733;DHT22;7457;50.960;6.830;2022-10-28T02:04:49;17.60;99.90
14733;DHT22;7457;50.960;6.830;2022-10-28T02:07:15;17.60;99.90
14733;DHT22;7457;50.960;6.830;2022-10-28T02:10:08;17.60;99.90
14733;DHT22;7457;50.960;6.830;2022-10-28T02:12:37;17.60;99.90
14733;DHT22;7457;50.960;6.830;2022-10-28T02:17:58;17.60;99.90
14733;DHT22;7457;50.960;6.830;2022-10-28T02:23:16;17.60;99.90
14733;DHT22;7457;50.960;6.830;2022-10-28T02:25:45;17.60;99.90
14733;DHT22;7457;50.960;6.830;2022-10-28T02:28:20;17.50;99.90
14733;DHT22;7457;50.960;6.830;2022-10-28T02:30:59;17.50;99.90
14733;DHT22;7457;50.960;6.830;2022-10-28T02:33:34;17.50;99.90
14733;DHT22;7457;50.960;6.830;2022-10-28T02:36:04;17.40;99.90
14733;DHT22;7457;50.960;6.830;2022-10-28T02:38:37;17.40;99.90
14733;DHT22;7457;50.960;6.830;2022-10-28T02:41:12;17.40;99.90
14733;DHT22;7457;50.960;6.830;2022-10-28T02:43:41;17.40;99.90
14733;DHT22;7457;50.960;6.830;2022-10-28T02:46:10;17.30;99.90
14733;DHT22;7457;50.960;6.830;2022-10-28T02:48:41;17.30;99.90
14733;DHT22;7457;50.960;6.830;2022-10-28T02:51:12;17.30;99.90
14733;DHT22;7457;50.960;6.830;2022-10-28T02:54:00;17.30;99.90
14733;DHT22;7457;50.960;6.830;2022-10-28T02:56:28;17.30;99.90
14733;DHT22;7457;50.960;6.830;2022-10-28T02:58:56;17.30;99.90
14733;DHT22;7457;50.960;6.830;2022-10-28T03:01:21;17.30;99.90
14733;DHT22;7457;50.960;6.830;2022-10-28T03:03:47;17.20;99.90
14733;DHT22;7457;50.960;6.830;2022-10-28T03:06:13;17.10;99.90
14733;DHT22;7457;50.960;6.830;2022-10-28T03:08:38;17.10;99.90
14733;DHT22;7457;50.960;6.830;2022-10-28T03:11:04;17.00;99.90
14733;DHT22;7457;50.960;6.830;2022-10-28T03:13:30;16.90;99.90
14733;DHT22;7457;50.960;6.830;2022-10-28T03:15:55;16.80;99.90
14733;DHT22;7457;50.960;6.830;2022-10-28T03:18:21;16.70;99.90
14733;DHT22;7457;50.960;6.830;2022-10-28T03:20:46;16.60;99.90
14733;DHT22;7457;50.960;6.830;2022-10-28T03:23:12;16.50;99.90
14733;DHT22;7457;50.960;6.830;2022-10-28T03:25:38;16.40;99.90
14733;DHT22;7457;50.960;6.830;2022-10-28T03:28:03;16.30;99.90
14733;DHT22;7457;50.960;6.830;2022-10-28T03:30:29;16.30;99.90
14733;DHT22;7457;50.960;6.830;2022-10-28T03:32:55;16.20;99.90
14733;DHT22;7457;50.960;6.830;2022-10-28T03:35:20;16.20;99.90
14733;DHT22;7457;50.960;6.830;2022-10-28T03:37:46;16.20;99.90
14733;DHT22;7457;50.960;6.830;2022-10-28T03:40:12;16.20;99.90
14733;DHT22;7457;50.960;6.830;2022-10-28T03:42:39;16.20;99.90
14733;DHT22;7457;50.960;6.830;2022-10-28T03:45:06;16.20;99.90
14733;DHT22;7457;50.960;6.830;2022-10-28T03:47:33;16.20;99.90
14733;DHT22;7457;50.960;6.830;2022-10-28T03:49:59;16.20;99.90
14733;DHT22;7457;50.960;6.830;2022-10-28T03:52:24;16.30;99.90
14733;DHT22;7457;50.960;6.830;2022-10-28T03:54:50;16.40;99.90
14733;DHT22;7457;50.960;6.830;2022-10-28T03:57:15;16.50;99.90
14733;DHT22;7457;50.960;6.830;2022-10-28T03:59:41;16.50;99.90
14733;DHT22;7457;50.960;6.830;2022-10-28T04:02:06;16.50;99.90
14733;DHT22;7457;50.960;6.830;2022-10-28T04:04:32;16.60;99.90
14733;DHT22;7457;50.960;6.830;2022-10-28T04:06:58;16.60;99.90
14733;DHT22;7457;50.960;6.830;2022-10-28T04:09:23;16.60;99.90
14733;DHT22;7457;50.960;6.830;2022-10-28T04:11:49;16.60;99.90
14733;DHT22;7457;50.960;6.830;2022-10-28T04:14:14;16.60;99.90
14733;DHT22;7457;50.960;6.830;2022-10-28T04:16:40;16.60;99.90
14733;DHT22;7457;50.960;6.830;2022-10-28T04:19:05;16.70;99.90
14733;DHT22;7457;50.960;6.830;2022-10-28T04:21:31;16.70;99.90
14733;DHT22;7457;50.960;6.830;2022-10-28T04:23:57;16.70;99.90
14733;DHT22;7457;50.960;6.830;2022-10-28T04:26:22;16.70;99.90
14733;DHT22;7457;50.960;6.830;2022-10-28T04:28:48;16.70;99.90
14733;DHT22;7457;50.960;6.830;2022-10-28T04:31:14;16.60;99.90
14733;DHT22;7457;50.960;6.830;2022-10-28T04:33:39;16.70;99.90
14733;DHT22;7457;50.960;6.830;2022-10-28T04:36:05;16.60;99.90
14733;DHT22;7457;50.960;6.830;2022-10-28T04:38:31;16.60;99.90
14733;DHT22;7457;50.960;6.830;2022-10-28T04:40:56;16.70;99.90
14733;DHT22;7457;50.960;6.830;2022-10-28T04:43:22;16.80;99.90
14733;DHT22;7457;50.960;6.830;2022-10-28T04:45:47;16.90;99.90
14733;DHT22;7457;50.960;6.830;2022-10-28T04:48:13;16.90;99.90
14733;DHT22;7457;50.960;6.830;2022-10-28T04:50:39;16.90;99.90
14733;DHT22;7457;50.960;6.830;2022-10-28T04:53:04;17.00;99.90
14733;DHT22;7457;50.960;6.830;2022-10-28T04:55:30;17.00;99.90
14733;DHT22;7457;50.960;6.830;2022-10-28T04:57:58;17.00;99.90
14733;DHT22;7457;50.960;6.830;2022-10-28T05:00:24;17.00;99.90
14733;DHT22;7457;50.960;6.830;2022-10-28T05:02:50;17.00;99.90
14733;DHT22;7457;50.960;6.830;2022-10-28T05:05:16;17.00;99.90
14733;DHT22;7457;50.960;6.830;2022-10-28T05:07:42;17.10;99.90
14733;DHT22;7457;50.960;6.830;2022-10-28T05:10:08;17.00;99.90
14733;DHT22;7457;50.960;6.830;2022-10-28T05:12:33;17.00;99.90
14733;DHT22;7457;50.960;6.830;2022-10-28T05:14:59;16.90;99.90
14733;DHT22;7457;50.960;6.830;2022-10-28T05:17:25;16.90;99.90
14733;DHT22;7457;50.960;6.830;2022-10-28T05:19:50;16.90;99.90
14733;DHT22;7457;50.960;6.830;2022-10-28T05:22:16;16.90;99.90
14733;DHT22;7457;50.960;6.830;2022-10-28T05:24:41;16.80;99.90
14733;DHT22;7457;50.960;6.830;2022-10-28T05:27:07;16.80;99.90
14733;DHT22;7457;50.960;6.830;2022-10-28T05:29:32;16.80;99.90
14733;DHT22;7457;50.960;6.830;2022-10-28T05:31:59;16.80;99.90
14733;DHT22;7457;50.960;6.830;2022-10-28T05:34:25;16.80;99.90
14733;DHT22;7457;50.960;6.830;2022-10-28T05:36:50;16.80;99.90
14733;DHT22;7457;50.960;6.830;2022-10-28T05:39:16;16.70;99.90
14733;DHT22;7457;50.960;6.830;2022-10-28T05:41:42;16.70;99.90
14733;DHT22;7457;50.960;6.830;2022-10-28T05:44:08;16.60;99.90
14733;DHT22;7457;50.960;6.830;2022-10-28T05:46:33;16.60;99.90
14733;DHT22;7457;50.960;6.830;2022-10-28T05:48:59;16.70;99.90
14733;DHT22;7457;50.960;6.830;2022-10-28T05:51:24;16.60;99.90
14733;DHT22;7457;50.960;6.830;2022-10-28T05:53:50;16.50;99.90
14733;DHT22;7457;50.960;6.830;2022-10-28T05:56:16;16.50;99.90
14733;DHT22;7457;50.960;6.830;2022-10-28T05:58:42;16.50;99.90
14733;DHT22;7457;50.960;6.830;2022-10-28T06:01:08;16.50;99.90
14733;DHT22;7457;50.960;6.830;2022-10-28T06:03:33;16.50;99.90
14733;DHT22;7457;50.960;6.830;2022-10-28T06:05:59;16.50;99.90
14733;DHT22;7457;50.960;6.830;2022-10-28T06:08:25;16.50;99.90
14733;DHT22;7457;50.960;6.830;2022-10-28T06:10:52;16.50;99.90
14733;DHT22;7457;50.960;6.830;2022-10-28T06:13:18;16.60;99.90
14733;DHT22;7457;50.960;6.830;2022-10-28T06:15:49;16.50;99.90
14733;DHT22;7457;50.960;6.830;2022-10-28T06:18:14;16.60;99.90
14733;DHT22;7457;50.960;6.830;2022-10-28T06:20:40;16.60;99.90
14733;DHT22;7457;50.960;6.830;2022-10-28T06:23:05;16.70;99.90
14733;DHT22;7457;50.960;6.830;2022-10-28T06:25:31;16.70;99.90
14733;DHT22;7457;50.960;6.830;2022-10-28T06:27:58;16.70;99.90
14733;DHT22;7457;50.960;6.830;2022-10-28T06:30:27;16.70;99.90
14733;DHT22;7457;50.960;6.830;2022-10-28T06:32:55;16.70;99.90
14733;DHT22;7457;50.960;6.830;2022-10-28T06:35:21;16.70;99.90
14733;DHT22;7457;50.960;6.830;2022-10-28T06:37:47;16.70;99.90
14733;DHT22;7457;50.960;6.830;2022-10-28T06:40:12;16.80;99.90
14733;DHT22;7457;50.960;6.830;2022-10-28T06:42:38;16.80;99.90
14733;DHT22;7457;50.960;6.830;2022-10-28T06:45:04;16.90;99.90
14733;DHT22;7457;50.960;6.830;2022-10-28T06:47:30;16.90;99.90
14733;DHT22;7457;50.960;6.830;2022-10-28T06:49:55;16.90;99.90
14733;DHT22;7457;50.960;6.830;2022-10-28T06:52:21;16.90;99.90
14733;DHT22;7457;50.960;6.830;2022-10-28T06:54:46;16.90;99.90
14733;DHT22;7457;50.960;6.830;2022-10-28T06:57:12;16.90;99.90
14733;DHT22;7457;50.960;6.830;2022-10-28T06:59:37;17.00;99.90
14733;DHT22;7457;50.960;6.830;2022-10-28T07:02:03;17.00;99.90
14733;DHT22;7457;50.960;6.830;2022-10-28T07:04:29;17.00;99.90
14733;DHT22;7457;50.960;6.830;2022-10-28T07:06:55;17.00;99.90
14733;DHT22;7457;50.960;6.830;2022-10-28T07:09:21;17.10;99.90
14733;DHT22;7457;50.960;6.830;2022-10-28T07:11:47;17.10;99.90
14733;DHT22;7457;50.960;6.830;2022-10-28T07:14:13;17.10;99.90
14733;DHT22;7457;50.960;6.830;2022-10-28T07:16:39;17.20;99.90
14733;DHT22;7457;50.960;6.830;2022-10-28T07:19:04;17.20;99.90
14733;DHT22;7457;50.960;6.830;2022-10-28T07:21:30;17.40;99.90
14733;DHT22;7457;50.960;6.830;2022-10-28T07:23:55;17.60;99.90
14733;DHT22;7457;50.960;6.830;2022-10-28T07:26:22;17.80;99.90
14733;DHT22;7457;50.960;6.830;2022-10-28T07:28:47;17.90;99.90
14733;DHT22;7457;50.960;6.830;2022-10-28T07:31:13;18.10;99.90
14733;DHT22;7457;50.960;6.830;2022-10-28T07:33:39;18.30;99.90
14733;DHT22;7457;50.960;6.830;2022-10-28T07:36:05;18.50;99.90
14733;DHT22;7457;50.960;6.830;2022-10-28T07:38:31;18.60;99.90
14733;DHT22;7457;50.960;6.830;2022-10-28T07:40:57;18.70;99.90
14733;DHT22;7457;50.960;6.830;2022-10-28T07:43:23;18.80;99.90
14733;DHT22;7457;50.960;6.830;2022-10-28T07:45:55;18.80;99.90
14733;DHT22;7457;50.960;6.830;2022-10-28T07:48:20;18.90;99.90
14733;DHT22;7457;50.960;6.830;2022-10-28T07:50:46;18.90;99.90
14733;DHT22;7457;50.960;6.830;2022-10-28T07:53:11;18.90;99.90
14733;DHT22;7457;50.960;6.830;2022-10-28T07:55:37;18.90;99.90
14733;DHT22;7457;50.960;6.830;2022-10-28T07:58:03;18.90;99.90
14733;DHT22;7457;50.960;6.830;2022-10-28T08:00:28;18.90;99.90
14733;DHT22;7457;50.960;6.830;2022-10-28T08:02:54;18.90;99.90
14733;DHT22;7457;50.960;6.830;2022-10-28T08:05:19;18.80;99.90
14733;DHT22;7457;50.960;6.830;2022-10-28T08:07:45;18.80;99.90
14733;DHT22;7457;50.960;6.830;2022-10-28T08:10:12;18.80;99.90
14733;DHT22;7457;50.960;6.830;2022-10-28T08:12:37;18.90;99.90
14733;DHT22;7457;50.960;6.830;2022-10-28T08:15:03;19.00;99.90
14733;DHT22;7457;50.960;6.830;2022-10-28T08:17:29;19.00;99.90
14733;DHT22;7457;50.960;6.830;2022-10-28T08:19:55;19.00;99.90
14733;DHT22;7457;50.960;6.830;2022-10-28T08:22:20;19.10;99.90
14733;DHT22;7457;50.960;6.830;2022-10-28T08:24:46;19.10;99.90
14733;DHT22;7457;50.960;6.830;2022-10-28T08:27:11;19.10;99.90
14733;DHT22;7457;50.960;6.830;2022-10-28T08:29:37;19.10;99.90
14733;DHT22;7457;50.960;6.830;2022-10-28T08:32:03;19.00;99.90
14733;DHT22;7457;50.960;6.830;2022-10-28T08:34:28;19.00;99.90
14733;DHT22;7457;50.960;6.830;2022-10-28T08:36:56;19.10;99.90
14733;DHT22;7457;50.960;6.830;2022-10-28T08:39:21;19.10;99.90
14733;DHT22;7457;50.960;6.830;2022-10-28T08:42:00;19.10;99.90
14733;DHT22;7457;50.960;6.830;2022-10-28T08:47:16;19.20;99.90
14733;DHT22;7457;50.960;6.830;2022-10-28T08:49:49;19.20;99.90
14733;DHT22;7457;50.960;6.830;2022-10-28T08:52:42;19.30;99.90
14733;DHT22;7457;50.960;6.830;2022-10-28T08:57:48;19.70;99.90
14733;DHT22;7457;50.960;6.830;2022-10-28T09:00:24;20.00;99.90
14733;DHT22;7457;50.960;6.830;2022-10-28T09:05:24;20.20;99.90
14733;DHT22;7457;50.960;6.830;2022-10-28T09:07:50;20.20;99.90
14733;DHT22;7457;50.960;6.830;2022-10-28T09:10:17;20.30;99.90
14733;DHT22;7457;50.960;6.830;2022-10-28T09:13:02;20.60;99.90
14733;DHT22;7457;50.960;6.830;2022-10-28T09:15:40;21.00;99.90
14733;DHT22;7457;50.960;6.830;2022-10-28T09:18:54;21.20;99.90
14733;DHT22;7457;50.960;6.830;2022-10-28T09:23:56;21.90;99.90
14733;DHT22;7457;50.960;6.830;2022-10-28T09:26:43;22.30;99.90
14733;DHT22;7457;50.960;6.830;2022-10-28T09:32:39;22.80;99.90
14733;DHT22;7457;50.960;6.830;2022-10-28T09:35:13;22.90;99.90
14733;DHT22;7457;50.960;6.830;2022-10-28T09:37:44;22.90;99.60
14733;DHT22;7457;50.960;6.830;2022-10-28T09:40:22;22.80;98.60
14733;DHT22;7457;50.960;6.830;2022-10-28T09:45:27;23.40;98.40
14733;DHT22;7457;50.960;6.830;2022-10-28T09:48:18;23.70;98.40
14733;DHT22;7457;50.960;6.830;2022-10-28T09:50:44;24.10;98.00
14733;DHT22;7457;50.960;6.830;2022-10-28T09:55:57;24.50;96.80
14733;DHT22;7457;50.960;6.830;2022-10-28T09:58:22;24.40;96.30
14733;DHT22;7457;50.960;6.830;2022-10-28T10:00:48;24.50;95.90
14733;DHT22;7457;50.960;6.830;2022-10-28T10:03:15;24.90;95.90
14733;DHT22;7457;50.960;6.830;2022-10-28T10:05:44;25.00;95.20
14733;DHT22;7457;50.960;6.830;2022-10-28T10:08:14;25.00;94.30
14733;DHT22;7457;50.960;6.830;2022-10-28T10:13:12;24.90;93.70
14733;DHT22;7457;50.960;6.830;2022-10-28T10:15:59;24.80;93.50
14733;DHT22;7457;50.960;6.830;2022-10-28T10:18:31;24.50;93.20
14733;DHT22;7457;50.960;6.830;2022-10-28T10:21:00;24.50;93.50
14733;DHT22;7457;50.960;6.830;2022-10-28T10:26:08;24.30;93.60
14733;DHT22;7457;50.960;6.830;2022-10-28T10:28:36;24.70;93.60
14733;DHT22;7457;50.960;6.830;2022-10-28T10:31:05;24.70;93.40
14733;DHT22;7457;50.960;6.830;2022-10-28T10:33:35;24.90;93.20
14733;DHT22;7457;50.960;6.830;2022-10-28T10:38:34;24.80;93.00
14733;DHT22;7457;50.960;6.830;2022-10-28T10:41:01;24.90;93.10
14733;DHT22;7457;50.960;6.830;2022-10-28T10:46:02;24.50;93.10
14733;DHT22;7457;50.960;6.830;2022-10-28T10:48:30;24.50;93.50
14733;DHT22;7457;50.960;6.830;2022-10-28T10:50:57;24.40;93.40
14733;DHT22;7457;50.960;6.830;2022-10-28T10:53:30;24.30;93.60
14733;DHT22;7457;50.960;6.830;2022-10-28T10:56:08;24.20;93.80
14733;DHT22;7457;50.960;6.830;2022-10-28T10:58:40;24.30;93.90
14733;DHT22;7457;50.960;6.830;2022-10-28T11:01:17;24.60;93.70
14733;DHT22;7457;50.960;6.830;2022-10-28T11:03:55;25.00;93.40
14733;DHT22;7457;50.960;6.830;2022-10-28T11:06:27;25.50;93.00
14733;DHT22;7457;50.960;6.830;2022-10-28T11:08:57;25.80;92.50
14733;DHT22;7457;50.960;6.830;2022-10-28T11:11:32;26.10;91.70
14733;DHT22;7457;50.960;6.830;2022-10-28T11:16:49;26.70;90.50
14733;DHT22;7457;50.960;6.830;2022-10-28T11:19:26;27.10;89.70
14733;DHT22;7457;50.960;6.830;2022-10-28T11:25:07;27.40;87.90
14733;DHT22;7457;50.960;6.830;2022-10-28T11:28:00;27.50;86.00
14733;DHT22;7457;50.960;6.830;2022-10-28T11:30:37;27.70;84.90
14733;DHT22;7457;50.960;6.830;2022-10-28T11:33:17;27.40;84.60
14733;DHT22;7457;50.960;6.830;2022-10-28T11:36:02;27.40;84.60
14733;DHT22;7457;50.960;6.830;2022-10-28T11:43:51;27.80;83.90
14733;DHT22;7457;50.960;6.830;2022-10-28T11:56:52;26.50;81.10
14733;DHT22;7457;50.960;6.830;2022-10-28T11:59:52;26.30;82.30
14733;DHT22;7457;50.960;6.830;2022-10-28T12:05:05;26.40;81.60
14733;DHT22;7457;50.960;6.830;2022-10-28T12:11:07;27.40;79.50
14733;DHT22;7457;50.960;6.830;2022-10-28T12:19:17;27.80;77.30
14733;DHT22;7457;50.960;6.830;2022-10-28T12:21:40;27.50;76.00
14733;DHT22;7457;50.960;6.830;2022-10-28T12:24:14;27.20;75.90
14733;DHT22;7457;50.960;6.830;2022-10-28T12:26:42;26.90;75.30
14733;DHT22;7457;50.960;6.830;2022-10-28T12:29:15;26.70;76.30
14733;DHT22;7457;50.960;6.830;2022-10-28T12:31:46;26.60;75.30
14733;DHT22;7457;50.960;6.830;2022-10-28T12:34:17;26.50;76.20
14733;DHT22;7457;50.960;6.830;2022-10-28T12:36:48;26.50;77.00
14733;DHT22;7457;50.960;6.830;2022-10-28T12:39:21;26.30;77.30
14733;DHT22;7457;50.960;6.830;2022-10-28T12:42:22;26.20;77.40
14733;DHT22;7457;50.960;6.830;2022-10-28T12:44:51;26.10;77.00
14733;DHT22;7457;50.960;6.830;2022-10-28T12:47:29;26.10;78.70
14733;DHT22;7457;50.960;6.830;2022-10-28T12:57:36;26.00;80.00
14733;DHT22;7457;50.960;6.830;2022-10-28T13:02:45;26.00;79.70
14733;DHT22;7457;50.960;6.830;2022-10-28T13:05:37;26.00;79.70
14733;DHT22;7457;50.960;6.830;2022-10-28T13:08:21;25.90;79.70
14733;DHT22;7457;50.960;6.830;2022-10-28T13:11:01;25.80;80.30
14733;DHT22;7457;50.960;6.830;2022-10-28T13:26:50;25.50;81.00
14733;DHT22;7457;50.960;6.830;2022-10-28T13:29:27;25.50;80.30
14733;DHT22;7457;50.960;6.830;2022-10-28T13:31:53;25.60;80.40
14733;DHT22;7457;50.960;6.830;2022-10-28T13:34:28;25.60;79.50
14733;DHT22;7457;50.960;6.830;2022-10-28T13:36:57;25.50;79.10
14733;DHT22;7457;50.960;6.830;2022-10-28T13:39:37;25.50;79.40
14733;DHT22;7457;50.960;6.830;2022-10-28T13:44:52;25.40;80.30
14733;DHT22;7457;50.960;6.830;2022-10-28T13:50:08;25.10;81.50
14733;DHT22;7457;50.960;6.830;2022-10-28T13:58:05;24.80;81.50
14733;DHT22;7457;50.960;6.830;2022-10-28T14:00:43;24.70;82.10
14733;DHT22;7457;50.960;6.830;2022-10-28T14:03:23;24.60;81.90
14733;DHT22;7457;50.960;6.830;2022-10-28T14:05:57;24.50;81.50
14733;DHT22;7457;50.960;6.830;2022-10-28T14:08:32;24.40;81.30
14733;DHT22;7457;50.960;6.830;2022-10-28T14:11:23;24.40;81.50
14733;DHT22;7457;50.960;6.830;2022-10-28T14:13:52;24.30;81.60
14733;DHT22;7457;50.960;6.830;2022-10-28T14:16:23;24.30;81.80
14733;DHT22;7457;50.960;6.830;2022-10-28T14:18:54;24.30;82.30
14733;DHT22;7457;50.960;6.830;2022-10-28T14:21:21;24.20;82.20
14733;DHT22;7457;50.960;6.830;2022-10-28T14:23:49;24.10;82.80
14733;DHT22;7457;50.960;6.830;2022-10-28T14:26:15;24.10;83.10
14733;DHT22;7457;50.960;6.830;2022-10-28T14:28:48;24.00;83.40
14733;DHT22;7457;50.960;6.830;2022-10-28T14:33:50;23.90;84.10
14733;DHT22;7457;50.960;6.830;2022-10-28T14:41:55;23.70;85.10
14733;DHT22;7457;50.960;6.830;2022-10-28T14:44:54;23.60;86.10
14733;DHT22;7457;50.960;6.830;2022-10-28T14:47:54;23.60;86.80
14733;DHT22;7457;50.960;6.830;2022-10-28T14:50:23;23.40;87.80
14733;DHT22;7457;50.960;6.830;2022-10-28T14:52:52;23.20;88.30
14733;DHT22;7457;50.960;6.830;2022-10-28T14:55:31;23.10;89.20
14733;DHT22;7457;50.960;6.830;2022-10-28T14:58:40;22.90;90.10
14733;DHT22;7457;50.960;6.830;2022-10-28T15:01:31;22.70;90.60
14733;DHT22;7457;50.960;6.830;2022-10-28T15:04:03;22.50;90.80
14733;DHT22;7457;50.960;6.830;2022-10-28T15:11:41;22.20;91.70
14733;DHT22;7457;50.960;6.830;2022-10-28T15:14:14;22.10;91.90
14733;DHT22;7457;50.960;6.830;2022-10-28T15:16:47;22.00;92.10
14733;DHT22;7457;50.960;6.830;2022-10-28T15:19:17;21.90;92.30
14733;DHT22;7457;50.960;6.830;2022-10-28T15:21:43;21.90;92.60
14733;DHT22;7457;50.960;6.830;2022-10-28T15:24:12;21.80;92.90
14733;DHT22;7457;50.960;6.830;2022-10-28T15:26:38;21.70;93.00
14733;DHT22;7457;50.960;6.830;2022-10-28T15:29:03;21.70;93.20
14733;DHT22;7457;50.960;6.830;2022-10-28T15:31:29;21.60;93.30
14733;DHT22;7457;50.960;6.830;2022-10-28T15:33:55;21.50;93.40
14733;DHT22;7457;50.960;6.830;2022-10-28T15:36:23;21.50;93.40
14733;DHT22;7457;50.960;6.830;2022-10-28T15:43:59;21.40;93.70
14733;DHT22;7457;50.960;6.830;2022-10-28T15:46:26;21.40;93.70
14733;DHT22;7457;50.960;6.830;2022-10-28T15:48:53;21.30;93.80
14733;DHT22;7457;50.960;6.830;2022-10-28T15:51:19;21.30;93.90
14733;DHT22;7457;50.960;6.830;2022-10-28T15:53:52;21.20;94.00
14733;DHT22;7457;50.960;6.830;2022-10-28T15:56:28;21.20;94.00
14733;DHT22;7457;50.960;6.830;2022-10-28T16:04:00;21.10;94.30
14733;DHT22;7457;50.960;6.830;2022-10-28T16:06:27;21.00;94.70
14733;DHT22;7457;50.960;6.830;2022-10-28T16:09:17;20.90;94.50
14733;DHT22;7457;50.960;6.830;2022-10-28T16:11:52;20.80;94.60
14733;DHT22;7457;50.960;6.830;2022-10-28T16:14:30;20.80;94.80
14733;DHT22;7457;50.960;6.830;2022-10-28T16:19:47;20.60;95.10
14733;DHT22;7457;50.960;6.830;2022-10-28T16:22:13;20.50;95.10
14733;DHT22;7457;50.960;6.830;2022-10-28T16:24:40;20.50;95.30
14733;DHT22;7457;50.960;6.830;2022-10-28T16:27:19;20.50;95.50
14733;DHT22;7457;50.960;6.830;2022-10-28T16:29:46;20.40;95.60
14733;DHT22;7457;50.960;6.830;2022-10-28T16:32:13;20.30;95.60
14733;DHT22;7457;50.960;6.830;2022-10-28T16:34:39;20.30;95.80
14733;DHT22;7457;50.960;6.830;2022-10-28T16:39:44;20.20;96.00
14733;DHT22;7457;50.960;6.830;2022-10-28T16:42:09;20.20;96.10
14733;DHT22;7457;50.960;6.830;2022-10-28T16:44:35;20.20;96.20
14733;DHT22;7457;50.960;6.830;2022-10-28T16:47:01;20.10;96.20
14733;DHT22;7457;50.960;6.830;2022-10-28T16:49:26;20.10;96.40
14733;DHT22;7457;50.960;6.830;2022-10-28T16:51:52;20.10;96.40
14733;DHT22;7457;50.960;6.830;2022-10-28T16:54:18;20.00;96.40
14733;DHT22;7457;50.960;6.830;2022-10-28T16:56:44;20.00;96.50
14733;DHT22;7457;50.960;6.830;2022-10-28T16:59:09;20.00;96.70
14733;DHT22;7457;50.960;6.830;2022-10-28T17:01:35;20.00;96.70
14733;DHT22;7457;50.960;6.830;2022-10-28T17:04:01;20.00;96.80
14733;DHT22;7457;50.960;6.830;2022-10-28T17:06:27;19.90;96.80
14733;DHT22;7457;50.960;6.830;2022-10-28T17:08:52;19.90;96.80
14733;DHT22;7457;50.960;6.830;2022-10-28T17:11:18;19.90;96.90
14733;DHT22;7457;50.960;6.830;2022-10-28T17:13:43;19.80;97.10
14733;DHT22;7457;50.960;6.830;2022-10-28T17:16:09;19.80;97.00
14733;DHT22;7457;50.960;6.830;2022-10-28T17:18:35;19.90;97.10
14733;DHT22;7457;50.960;6.830;2022-10-28T17:21:01;20.00;97.10
14733;DHT22;7457;50.960;6.830;2022-10-28T17:23:28;20.10;97.00
14733;DHT22;7457;50.960;6.830;2022-10-28T17:26:01;20.10;96.90
14733;DHT22;7457;50.960;6.830;2022-10-28T17:28:27;20.10;96.80
14733;DHT22;7457;50.960;6.830;2022-10-28T17:30:53;20.20;96.80
14733;DHT22;7457;50.960;6.830;2022-10-28T17:33:18;20.20;96.70
14733;DHT22;7457;50.960;6.830;2022-10-28T17:35:44;20.10;96.60
14733;DHT22;7457;50.960;6.830;2022-10-28T17:38:09;20.00;96.70
14733;DHT22;7457;50.960;6.830;2022-10-28T17:40:35;20.00;96.80
14733;DHT22;7457;50.960;6.830;2022-10-28T17:43:00;19.90;96.90
14733;DHT22;7457;50.960;6.830;2022-10-28T17:45:26;19.90;96.90
14733;DHT22;7457;50.960;6.830;2022-10-28T17:47:52;19.90;97.00
14733;DHT22;7457;50.960;6.830;2022-10-28T17:50:17;19.80;97.10
14733;DHT22;7457;50.960;6.830;2022-10-28T17:52:43;19.70;97.10
14733;DHT22;7457;50.960;6.830;2022-10-28T17:55:09;19.70;97.20
14733;DHT22;7457;50.960;6.830;2022-10-28T17:57:34;19.60;97.30
14733;DHT22;7457;50.960;6.830;2022-10-28T18:00:00;19.60;97.40
14733;DHT22;7457;50.960;6.830;2022-10-28T18:02:26;19.50;97.50
14733;DHT22;7457;50.960;6.830;2022-10-28T18:04:51;19.40;97.60
14733;DHT22;7457;50.960;6.830;2022-10-28T18:07:17;19.30;97.80
14733;DHT22;7457;50.960;6.830;2022-10-28T18:09:42;19.20;97.90
14733;DHT22;7457;50.960;6.830;2022-10-28T18:12:08;19.10;98.00
14733;DHT22;7457;50.960;6.830;2022-10-28T18:14:37;19.10;98.30
14733;DHT22;7457;50.960;6.830;2022-10-28T18:17:02;19.00;98.40
14733;DHT22;7457;50.960;6.830;2022-10-28T18:19:28;18.90;98.60
14733;DHT22;7457;50.960;6.830;2022-10-28T18:21:54;18.80;98.70
14733;DHT22;7457;50.960;6.830;2022-10-28T18:24:19;18.80;98.90
14733;DHT22;7457;50.960;6.830;2022-10-28T18:26:45;18.70;99.10
14733;DHT22;7457;50.960;6.830;2022-10-28T18:29:10;18.70;99.30
14733;DHT22;7457;50.960;6.830;2022-10-28T18:31:37;18.60;99.40